Tiempo atmosférico en la estación meteorológica de Puntagorda, Santa Cruz de Tenerife (684 m.)



Fecha
DESCASC
Temp. máxima en grados centígrados (hora)
DESCASC
Temp. mínima en grados centígrados (hora)
DESCASC
Temp. media en grados centígrados
DESCASC
Racha de viento máxima en m/sg (hora)
DESCASC
Velocidad máxima media en intervalos de 10 minutos(hora)
DESCASC
Precipitaciones diarias en mm
DESCASC
Precipitaciones de 00:00 a 06:00 en mm
DESCASC
Precipitaciones de 06:00 a 12:00 en mm
DESCASC
Precipitaciones de 12:00 a 18:00 en mm
DESCASC
Precipitaciones de 18:00 a 24:00 en mm
DESCASC
25-02-2021 17.5 (15:10) 10.2 (23:00) 13.8 6.94 (23:59) 4.17 (15:30) 0 0 0 0 0
24-02-2021 17.9 (12:40) 9.2 (06:40) 13.5 9.72 (12:40) 4.17 (23:50) 0 0 0 0 0
23-02-2021 17.2 (15:20) 9.4 (05:20) 13.3 4.72 (11:50) 3.33 (11:50) 0 0 0 0 0
22-02-2021 16.2 (13:50) 9.8 (00:40) 13 5 (14:20) 3.89 (21:20) 0.4 0 0 0.4 0
21-02-2021 14.7 (16:00) 9.7 (00:00) 12.2 11.11 (12:10) 7.22 (11:10) 0 0 0 0 0
20-02-2021 16.3 (11:20) 11.1 (00:00) 13.7 16.39 (14:10) 10.56 (12:10) 17.8 0 0 15 2.8
19-02-2021 15.8 (15:20) 8.8 (00:00) 12.3 8.33 (12:30) 6.11 (12:30) 0 0 0 0 0
18-02-2021 17.2 (15:40) 9.7 (00:00) 13.5 4.72 (16:40) 3.06 (17:20) 0 0 0 0 0
17-02-2021 17.4 (14:50) 10.9 (00:00) 14.1 9.44 (03:10) 4.44 (18:10) 0 0 0 0 0
16-02-2021 18.6 (15:20) 11.2 (00:00) 14.9 6.39 (20:30) 3.89 (20:20) 0 0 0 0 0
15-02-2021 21.5 (11:10) 13 (00:00) 17.3 6.94 (11:10) 3.89 (10:50) 0 0 0 0 0
14-02-2021 20.3 (13:30) 9 (00:00) 14.6 4.17 (13:00) 2.78 (13:00) 0.2 0 0.2 0 0
13-02-2021 17.2 (16:00) 9.3 (00:00) 13.3 5 (12:00) 3.06 (10:20) 0 0 0 0 0
12-02-2021 17.7 (15:40) 9.4 (00:00) 13.6 5.56 (20:20) 2.78 (17:20) 0 0 0 0 0
11-02-2021 16.7 (15:10) 10.5 (00:00) 13.6 8.33 (12:40) 5 (11:40) 0 0 0 0 0
10-02-2021 16.7 (15:30) 10 (00:00) 13.4 5 (05:10) 3.61 (05:10) 0 0 0 0 0
09-02-2021 15.3 (16:00) 9.6 (00:00) 12.5 5.83 (02:20) 3.33 (05:10) 0.2 0 0.2 0 0
08-02-2021 15 (15:00) 9.6 (00:00) 12.3 7.78 (08:10) 4.72 (11:20) 0.4 0.2 0.2 0 0
07-02-2021 15.1 (18:00) 8.7 (00:00) 11.9 10.83 (01:40) 5.56 (01:40) 0 0 0 0 0
06-02-2021 13.4 (14:20) 8.9 (00:00) 11.1 13.61 (04:30) 8.33 (16:50) 2.4 0.4 0 1.8 0.2
05-02-2021 10.5 (15:50) 5.5 (00:00) 8 22.78 (12:40) 9.72 (17:30) 38.2 14.6 12.2 10 1.4
04-02-2021 12.4 (15:10) 7.2 (00:00) 9.8 10.28 (00:40) 6.39 (00:40) 6.8 4.2 0.4 0.2 2
03-02-2021 16.3 (17:40) 10 (00:00) 13.1 11.39 (23:30) 7.5 (23:30) 10.4 0 0 0 10.4
02-02-2021 19.6 (17:10) 11.9 (23:30) 15.8 5.56 (17:20) 3.33 (17:20) 0 0 0 0 0
01-02-2021 20.8 (15:50) 14.6 (00:00) 17.7 3.61 (15:30) 2.22 (12:40) 0 0 0 0 0
31-01-2021 20.8 (15:50) 12.5 (00:00) 16.6 5 (04:40) 3.06 (01:50) 0 0 0 0 0
30-01-2021 22.7 (12:30) 15.3 (00:00) 19 6.94 (05:50) 4.17 (01:00) 0 0 0 0 0

Gráficas

Temp. máximas Temp. mínimas Temp. medias Precipitaciones Rachas de viento máximas Velocidades máximas media en intervalos de 10 minutos

Datos horarios

Fecha y hora oficial Temperatura (ºC) Velocidad del viento (km/h) Dirección del viento Racha (km/h) Dirección de racha Precipitación (mm) Presión (hPa) Tendencia (hPa) Humedad (%)
2021-02-28 23:00:00 10.4 5 Nordeste 14 Este 0 -- -- 77
2021-02-28 22:00:00 10.5 2 Este 11 Sudeste 0 -- -- 77
2021-02-28 21:00:00 11.7 0 Calma 8 Sur 0 -- -- 89
2021-02-28 20:00:00 12.2 0 Calma 8 Sudoeste 0 -- -- 86
2021-02-28 19:00:00 13.5 6 Sur 14 Sur 0 -- -- 76
2021-02-28 18:00:00 15.5 7 Sudoeste 14 Nordeste 0 -- -- 65
2021-02-28 17:00:00 15.6 5 Sudoeste 28 Norte 0 -- -- 67
2021-02-28 16:00:00 14.7 7 Norte 24 Noroeste 0 -- -- 76
2021-02-28 15:00:00 14.7 12 Norte 37 Norte 0 -- -- 81
2021-02-28 14:00:00 15.3 10 Norte 33 Norte 0 -- -- 71
2021-02-28 13:00:00 15 17 Norte 35 Norte 0 -- -- 64
2021-02-28 12:00:00 14.3 10 Norte 22 Norte 0 -- -- 68
2021-02-28 11:00:00 13.4 11 Nordeste 30 Nordeste 0 -- -- 72
2021-02-28 10:00:00 12 10 Nordeste 27 Nordeste 0 -- -- 74
2021-02-28 09:00:00 10.4 8 Nordeste 32 Este 0 -- -- 85
2021-02-28 08:00:00 10 17 Nordeste 33 Nordeste 0.2 -- -- 89
2021-02-28 07:00:00 9.9 19 Nordeste 38 Norte 0.6 -- -- 95
2021-02-28 06:00:00 10.2 18 Nordeste 36 Norte 1.2 -- -- 95
2021-02-28 05:00:00 9.7 14 Nordeste 28 Nordeste 2.4 -- -- 92
2021-02-28 04:00:00 10 13 Nordeste 31 Nordeste 0 -- -- 85
2021-02-28 03:00:00 9.4 12 Nordeste 27 Nordeste 0 -- -- 82
2021-02-28 02:00:00 10.1 9 Nordeste 32 Este 0 -- -- 71
2021-02-28 01:00:00 9.4 12 Nordeste 37 Nordeste 0 -- -- 80
2021-02-28 00:00:00 9.3 15 Nordeste 26 Nordeste 0 -- -- 85
2021-02-27 23:00:00 9.3 13 Nordeste 29 Nordeste 0 -- -- 83
2021-02-27 22:00:00 9.4 15 Nordeste 29 Norte 0 -- -- 82
2021-02-27 21:00:00 9.6 15 Nordeste 37 Norte 0 -- -- 81
2021-02-27 20:00:00 9.6 18 Nordeste 35 Nordeste 0 -- -- 79
2021-02-27 19:00:00 10.2 22 Norte 43 Norte 0 -- -- 75
2021-02-27 18:00:00 11.6 22 Nordeste 48 Nordeste 0 -- -- 72
2021-02-27 17:00:00 12 25 Norte 44 Norte 0 -- -- 76
2021-02-27 16:00:00 13.8 25 Nordeste 43 Nordeste 0 -- -- 67
2021-02-27 15:00:00 13.9 19 Nordeste 40 Este 0 -- -- 64
2021-02-27 14:00:00 13.1 21 Nordeste 45 Nordeste 0 -- -- 73
2021-02-27 13:00:00 11.5 21 Nordeste 38 Norte 0.4 -- -- 83
2021-02-27 12:00:00 11 23 Norte 39 Norte 0 -- -- 87
2021-02-27 11:00:00 13.2 15 Nordeste 37 Nordeste 0 -- -- 61
2021-02-27 10:00:00 11.2 22 Norte 35 Norte 0 -- -- 81
2021-02-27 09:00:00 10.3 19 Nordeste 38 Nordeste 0 -- -- 62
2021-02-27 08:00:00 9.4 21 Nordeste 36 Nordeste 0 -- -- 67
2021-02-27 07:00:00 9.3 18 Nordeste 35 Nordeste 0 -- -- 66
2021-02-27 06:00:00 9.3 15 Nordeste 41 Este 0 -- -- 61
2021-02-27 05:00:00 9.2 18 Nordeste 36 Este 0 -- -- 73
2021-02-27 04:00:00 9.5 17 Nordeste 39 Nordeste 0 -- -- 76
2021-02-27 03:00:00 9 13 Nordeste 33 Nordeste 0 -- -- 73
2021-02-27 02:00:00 9.2 14 Nordeste 27 Nordeste 0 -- -- 80
2021-02-27 01:00:00 9.5 6 Nordeste 21 Nordeste 0 -- -- 74
2021-02-27 00:00:00 9.8 14 Este 37 Nordeste 0 -- -- 62
2021-02-26 23:00:00 9.4 8 Nordeste 22 Norte 0 -- -- 77
2021-02-26 22:00:00 10.5 12 Este 35 Nordeste 0 -- -- 78
2021-02-26 21:00:00 10.5 11 Este 34 Nordeste 0 -- -- 64
2021-02-26 20:00:00 10.4 15 Nordeste 39 Nordeste 0 -- -- 73
2021-02-26 19:00:00 13.1 11 Nordeste 44 Nordeste 0 -- -- 65
2021-02-26 18:00:00 15.2 9 Este 28 Nordeste 0 -- -- 55
2021-02-26 17:00:00 16 7 Sudoeste 20 Sur 0 -- -- 62
2021-02-26 16:00:00 15.8 8 Sudoeste 25 Noroeste 0 -- -- 65
2021-02-26 15:00:00 15.9 11 Sudoeste 22 Oeste 0 -- -- 64
2021-02-26 14:00:00 15.7 9 Sudoeste 17 Sudoeste 0 -- -- 65
2021-02-26 13:00:00 15.3 9 Sur 21 Sudoeste 0 -- -- 63
2021-02-26 12:00:00 14.4 10 Sudoeste 19 Sudoeste 0 -- -- 65
2021-02-26 11:00:00 13 6 Sudoeste 21 Norte 0 -- -- 69
2021-02-26 10:00:00 11.3 13 Norte 19 Norte 0 -- -- 75
2021-02-26 09:00:00 8.9 7 Nordeste 16 Nordeste 0 -- -- 85
2021-02-26 08:00:00 8.7 6 Nordeste 16 Sudoeste 0 -- -- 84
2021-02-26 07:00:00 8.8 5 Sudeste 14 Sur 0 -- -- 84
2021-02-26 06:00:00 9.5 5 Este 22 Sur 0 -- -- 83
2021-02-26 05:00:00 9.6 8 Sur 17 Sur 0 -- -- 88
2021-02-26 04:00:00 10 9 Sur 18 Sur 0 -- -- 80
2021-02-26 03:00:00 10.2 10 Sur 24 Sudoeste 0 -- -- 73
2021-02-26 02:00:00 10.1 8 Sur 22 Sur 0 -- -- 71
2021-02-26 01:00:00 10.8 10 Sur 21 Sur 0 -- -- 81
2021-02-26 00:00:00 11 13 Sur 25 Sur 0 -- -- 70
2021-02-25 23:00:00 10.2 6 Sudeste 18 Sur 0 -- -- 80
2021-02-25 22:00:00 10.8 8 Sur 17 Sudeste 0 -- -- 79
2021-02-25 21:00:00 11.3 5 Sudoeste 17 Nordeste 0 -- -- 78
2021-02-25 20:00:00 12.4 5 Sur 21 Sur 0 -- -- 80
2021-02-25 19:00:00 14.2 13 Sur 22 Sur 0 -- -- 84
2021-02-25 18:00:00 16.1 10 Sudoeste 20 Sudoeste 0 -- -- 75
2021-02-25 17:00:00 16.9 12 Sudoeste 21 Sudoeste 0 -- -- 72
2021-02-25 16:00:00 17.2 15 Sudoeste 24 Sur 0 -- -- 69
2021-02-25 15:00:00 17.2 8 Sudoeste 19 Oeste 0 -- -- 68
2021-02-25 14:00:00 16.8 8 Sudoeste 19 Sur 0 -- -- 72
2021-02-25 13:00:00 16.3 10 Sudoeste 21 Sur 0 -- -- 77
2021-02-25 12:00:00 15.8 7 Sudoeste 20 Sudoeste 0 -- -- 81
2021-02-25 11:00:00 14.8 5 Sur 13 Norte 0 -- -- 83
2021-02-25 10:00:00 14.2 5 Sudoeste 14 Sur 0 -- -- 86
2021-02-25 09:00:00 12.4 4 Sudeste 9 Sudeste 0 -- -- 93
2021-02-25 08:00:00 11.7 4 Este 12 Sur 0 -- -- 95
2021-02-25 07:00:00 11 4 Sudeste 12 Este 0 -- -- 92
2021-02-25 06:00:00 10.9 4 Este 10 Este 0 -- -- 90
2021-02-25 05:00:00 10.9 3 Sudeste 10 Sudeste 0 -- -- 89
2021-02-25 04:00:00 10.9 4 Sudeste 8 Sudeste 0 -- -- 89
2021-02-25 03:00:00 11.4 2 Sudeste 9 Sudeste 0 -- -- 89
2021-02-25 02:00:00 11.6 3 Este 7 Sudeste 0 -- -- 87
2021-02-25 01:00:00 12.2 6 Este 23 Este 0 -- -- 86
2021-02-25 00:00:00 12.6 13 Este 31 Este 0 -- -- 87
2021-02-24 23:00:00 11.9 4 Este 20 Nordeste 0 -- -- 83
2021-02-24 22:00:00 13 10 Nordeste 28 Este 0 -- -- 86
2021-02-24 21:00:00 13 6 Este 27 Este 0 -- -- 85
2021-02-24 20:00:00 13.8 3 Sur 15 Norte 0 -- -- 87
2021-02-24 19:00:00 15 5 Sur 13 Sur 0 -- -- 82
2021-02-24 18:00:00 16.1 8 Sudoeste 15 Oeste 0 -- -- 77
2021-02-24 17:00:00 17.3 9 Sudoeste 20 Sudoeste 0 -- -- 73
2021-02-24 16:00:00 16.4 7 Oeste 18 Sur 0 -- -- 73
2021-02-24 15:00:00 16.7 9 Sudoeste 20 Sur 0 -- -- 72
2021-02-24 14:00:00 16.6 8 Sudoeste 19 Oeste 0 -- -- 72
2021-02-24 13:00:00 16.2 6 Sudoeste 35 Norte 0 -- -- 70
2021-02-24 12:00:00 15.6 8 Sudoeste 21 Este 0 -- -- 70
2021-02-24 11:00:00 15 7 Sur 13 Sur 0 -- -- 72
2021-02-24 10:00:00 13.6 8 Sur 13 Sur 0 -- -- 85
2021-02-24 09:00:00 11.4 0 Calma 14 Sudeste 0 -- -- 93
2021-02-24 08:00:00 10.2 2 Este 11 Sudeste 0 -- -- 95
2021-02-24 07:00:00 9.7 6 Sudeste 13 Sudeste 0 -- -- 95
2021-02-24 06:00:00 9.3 3 Sudeste 12 Sudeste 0 -- -- 92
2021-02-24 05:00:00 9.8 3 Sudeste 12 Sudeste 0 -- -- 93
2021-02-24 04:00:00 9.9 5 Sudeste 9 Sudeste 0 -- -- 93
2021-02-24 03:00:00 9.8 4 Sudeste 9 Sudeste 0 -- -- 92
2021-02-24 02:00:00 10 9 Sudeste 13 Sudeste 0 -- -- 90
2021-02-24 01:00:00 10 5 Este 9 Sudeste 0 -- -- 82
2021-02-24 00:00:00 10.3 3 Sur 9 Sur 0 -- -- 85
2021-02-23 23:00:00 9.9 3 Este 14 Nordeste 0 -- -- 65
2021-02-23 22:00:00 10.7 5 Norte 13 Este 0 -- -- 80
2021-02-23 21:00:00 12.1 3 Sudeste 8 Sudeste 0 -- -- 90
2021-02-23 20:00:00 13.2 3 Sur 6 Sur 0 -- -- 89
2021-02-23 19:00:00 14.4 5 Nordeste 11 Noroeste 0 -- -- 88
2021-02-23 18:00:00 16 6 Noroeste 13 Noroeste 0 -- -- 82
2021-02-23 17:00:00 16.4 6 Oeste 12 Sudoeste 0 -- -- 86
2021-02-23 16:00:00 16.6 5 Oeste 15 Noroeste 0 -- -- 81
2021-02-23 15:00:00 16.3 4 Noroeste 14 Noroeste 0 -- -- 79
2021-02-23 14:00:00 16.7 7 Oeste 15 Sudoeste 0 -- -- 85
2021-02-23 13:00:00 15.9 8 Sudoeste 16 Sur 0 -- -- 85
2021-02-23 12:00:00 15 10 Sur 17 Sur 0 -- -- 88
2021-02-23 11:00:00 15.2 6 Sur 10 Sur 0 -- -- 87
2021-02-23 10:00:00 14.5 0 Calma 5 Sur 0 -- -- 75
2021-02-23 09:00:00 11.8 3 Nordeste 6 Este 0 -- -- 75
2021-02-23 08:00:00 10.4 3 Este 9 Sudeste 0 -- -- 76
2021-02-23 07:00:00 10.1 6 Sudeste 14 Sudeste 0 -- -- 78
2021-02-23 06:00:00 10.3 10 Sudeste 14 Sudeste 0 -- -- 76
2021-02-23 05:00:00 10 7 Sudeste 13 Este 0 -- -- 73
2021-02-23 04:00:00 10.3 9 Este 12 Este 0 -- -- 78
2021-02-23 03:00:00 11.2 4 Nordeste 6 Este 0 -- -- 84
2021-02-23 02:00:00 11.6 0 Calma 5 Este 0 -- -- 90
2021-02-23 01:00:00 11.4 0 Calma 12 Nordeste 0 -- -- 90
2021-02-23 00:00:00 11.4 5 Nordeste 9 Este 0 -- -- 90
2021-02-22 23:00:00 11.4 0 Calma 7 Este 0 -- -- 90
2021-02-22 22:00:00 11.5 4 Este 17 Nordeste 0 -- -- 87
2021-02-22 21:00:00 11.7 8 Nordeste 12 Nordeste 0 -- -- 91
2021-02-22 20:00:00 12.5 8 Nordeste 12 Este 0 -- -- 92
2021-02-22 19:00:00 14.4 0 Calma 7 Norte 0 -- -- 91
2021-02-22 18:00:00 14.5 4 Noroeste 10 Oeste 0.4 -- -- 92
2021-02-22 17:00:00 14.6 3 Oeste 9 Sudoeste 0 -- -- 93
2021-02-22 16:00:00 14.5 4 Sudoeste 11 Sudoeste 0 -- -- 92
2021-02-22 15:00:00 15.2 4 Sudoeste 18 Oeste 0 -- -- 87
2021-02-22 14:00:00 16.2 6 Noroeste 16 Noroeste 0 -- -- 81
2021-02-22 13:00:00 15.6 7 Oeste 13 Oeste 0 -- -- 85
2021-02-22 12:00:00 15.3 6 Noroeste 15 Oeste 0 -- -- 86
2021-02-22 11:00:00 15.3 8 Noroeste 17 Norte 0 -- -- 84
2021-02-22 10:00:00 14.5 6 Norte 12 Norte 0 -- -- 85
2021-02-22 09:00:00 12 8 Norte 13 Nordeste 0 -- -- 92
2021-02-22 08:00:00 11.1 6 Nordeste 14 Nordeste 0 -- -- 90
2021-02-22 07:00:00 11.7 10 Nordeste 17 Nordeste 0 -- -- 90
2021-02-22 06:00:00 10.8 8 Nordeste 12 Nordeste 0 -- -- 91
2021-02-22 05:00:00 10.3 5 Nordeste 13 Nordeste 0 -- -- 88
2021-02-22 04:00:00 10.5 6 Nordeste 12 Nordeste 0 -- -- 83
2021-02-22 03:00:00 10.4 6 Nordeste 10 Nordeste 0 -- -- 78
2021-02-22 02:00:00 10.6 6 Nordeste 11 Nordeste 0 -- -- 78
2021-02-22 01:00:00 10.1 3 Nordeste 12 Nordeste 0 -- -- 79
2021-02-22 00:00:00 10 5 Nordeste 9 Este 0 -- -- 84
2021-02-21 23:00:00 9.9 4 Nordeste 9 Este 0 -- -- 86
2021-02-21 22:00:00 10.2 7 Nordeste 17 Nordeste 0 -- -- 85
2021-02-21 21:00:00 10.6 12 Nordeste 18 Nordeste 0 -- -- 88
2021-02-21 20:00:00 10.7 7 Nordeste 19 Norte 0 -- -- 87
2021-02-21 19:00:00 11.8 11 Norte 20 Norte 0 -- -- 81
2021-02-21 18:00:00 13.6 11 Norte 19 Noroeste 0 -- -- 74
2021-02-21 17:00:00 14.1 10 Norte 22 Noroeste 0 -- -- 76
2021-02-21 16:00:00 14.7 9 Norte 25 Norte 0 -- -- 76
2021-02-21 15:00:00 14.2 11 Norte 26 Norte 0 -- -- 76
2021-02-21 14:00:00 14.1 17 Norte 28 Norte 0 -- -- 73
2021-02-21 13:00:00 14 19 Norte 40 Norte 0 -- -- 73
2021-02-21 12:00:00 13.8 22 Norte 37 Norte 0 -- -- 79
2021-02-21 11:00:00 12.6 19 Norte 35 Norte 0 -- -- 80
2021-02-21 10:00:00 11.8 15 Nordeste 28 Norte 0 -- -- 82
2021-02-21 09:00:00 10.4 17 Nordeste 31 Norte 0 -- -- 87
2021-02-21 08:00:00 10.4 16 Norte 27 Norte 0 -- -- 90
2021-02-21 07:00:00 10.5 14 Norte 27 Nordeste 0 -- -- 91
2021-02-21 06:00:00 10.6 15 Nordeste 26 Nordeste 0 -- -- 94
2021-02-21 05:00:00 10.6 14 Nordeste 29 Norte 0 -- -- 96
2021-02-21 04:00:00 10.4 16 Nordeste 36 Este 0 -- -- 97
2021-02-21 03:00:00 10.6 17 Nordeste 31 Norte 0 -- -- 99
2021-02-21 02:00:00 11.1 16 Norte 28 Este 0 -- -- 99
2021-02-21 01:00:00 10.7 15 Nordeste 36 Nordeste 0 -- -- 98
2021-02-21 00:00:00 11.3 15 Nordeste 33 Nordeste 0.2 -- -- 99
2021-02-20 23:00:00 11.1 17 Nordeste 25 Este 0 -- -- 98
2021-02-20 22:00:00 12.1 13 Norte 26 Norte 0.2 -- -- 99
2021-02-20 21:00:00 12 8 Norte 32 Noroeste 0.8 -- -- 99
2021-02-20 20:00:00 13 10 Oeste 23 Oeste 1.4 -- -- 99
2021-02-20 19:00:00 13 12 Noroeste 26 Oeste 0.2 -- -- 98
2021-02-20 18:00:00 13.7 9 Sudoeste 34 Sur 5.6 -- -- 99
2021-02-20 17:00:00 14.2 26 Sudoeste 48 Sur 3.4 -- -- 98
2021-02-20 16:00:00 14.8 28 Sudoeste 45 Sudoeste 0.4 -- -- 98
2021-02-20 15:00:00 14.7 25 Sudoeste 59 Sudoeste 2.8 -- -- 98
2021-02-20 14:00:00 14.2 33 Sur 51 Sudoeste 1.2 -- -- 98
2021-02-20 13:00:00 13.7 34 Sur 57 Sur 1.6 -- -- 96
2021-02-20 12:00:00 15.2 35 Sur 57 Sudoeste 0 -- -- 83
2021-02-20 11:00:00 15.7 29 Sur 48 Sur 0 -- -- 79
2021-02-20 10:00:00 14.6 25 Sur 43 Sur 0 -- -- 81
2021-02-20 09:00:00 14 25 Sur 42 Sur 0 -- -- 79
2021-02-20 08:00:00 13.1 23 Sur 44 Sur 0 -- -- 79
2021-02-20 07:00:00 12.3 25 Sur 36 Sur 0 -- -- 80
2021-02-20 06:00:00 11.9 26 Sur 36 Sur 0 -- -- 86
2021-02-20 05:00:00 11.8 18 Sur 34 Sur 0 -- -- 76
2021-02-20 04:00:00 11.4 16 Sur 25 Sur 0 -- -- 89
2021-02-20 03:00:00 11.4 14 Sur 26 Sur 0 -- -- 90
2021-02-20 02:00:00 11.6 15 Sur 26 Sur 0 -- -- 91
2021-02-20 01:00:00 11.8 15 Sur 24 Sur 0 -- -- 88
2021-02-20 00:00:00 11.9 15 Sur 22 Sur 0 -- -- 82
2021-02-19 23:00:00 12 16 Sur 25 Sur 0 -- -- 70
2021-02-19 22:00:00 11.6 10 Sur 16 Sur 0 -- -- 87
2021-02-19 21:00:00 11.2 8 Sur 15 Sur 0 -- -- 80
2021-02-19 20:00:00 11.8 13 Sur 20 Sur 0 -- -- 74
2021-02-19 19:00:00 12.6 15 Sur 22 Sur 0 -- -- 80
2021-02-19 18:00:00 14.4 14 Sudoeste 26 Sudoeste 0 -- -- 63
2021-02-19 17:00:00 15.1 18 Sudoeste 27 Sur 0 -- -- 79
2021-02-19 16:00:00 15.4 20 Sur 27 Sur 0 -- -- 77
2021-02-19 15:00:00 15.5 20 Sur 27 Sur 0 -- -- 75
2021-02-19 14:00:00 15.4 20 Sur 29 Sudoeste 0 -- -- 78
2021-02-19 13:00:00 15.3 19 Sur 30 Sur 0 -- -- 76
2021-02-19 12:00:00 13.9 18 Sur 27 Sudoeste 0 -- -- 78
2021-02-19 11:00:00 13.9 15 Sur 22 Sudoeste 0 -- -- 77
2021-02-19 10:00:00 14.4 9 Sur 13 Sudoeste 0 -- -- 39
2021-02-19 09:00:00 10.5 5 Sudeste 14 Sudeste 0 -- -- 49
2021-02-19 08:00:00 9.3 4 Sudeste 17 Este 0 -- -- 60
2021-02-19 07:00:00 9.6 13 Nordeste 18 Nordeste 0 -- -- 55
2021-02-19 06:00:00 9.4 2 Norte 9 Sur 0 -- -- 53
2021-02-19 05:00:00 9.7 6 Sudeste 13 Sudeste 0 -- -- 53
2021-02-19 04:00:00 9.2 4 Este 6 Nordeste 0 -- -- 47
2021-02-19 03:00:00 8.8 5 Sudeste 12 Sudeste 0 -- -- 75
2021-02-19 02:00:00 9.5 5 Este 10 Sudeste 0 -- -- 79
2021-02-19 01:00:00 9.7 4 Sudeste 9 Sur 0 -- -- 83
2021-02-19 00:00:00 10 3 Sudeste 6 Sudeste 0 -- -- 75
2021-02-18 23:00:00 10.1 4 Este 8 Nordeste 0 -- -- 55
2021-02-18 22:00:00 10.4 3 Sudeste 9 Nordeste 0 -- -- 77
2021-02-18 21:00:00 10.5 4 Este 10 Este 0 -- -- 85
2021-02-18 20:00:00 11.7 0 Calma 8 Sur 0 -- -- 82
2021-02-18 19:00:00 13.6 6 Sur 13 Sudoeste 0 -- -- 75
2021-02-18 18:00:00 15.7 6 Sudoeste 17 Sudoeste 0 -- -- 63
2021-02-18 17:00:00 16.7 9 Sudoeste 17 Sur 0 -- -- 61
2021-02-18 16:00:00 17.1 7 Sudoeste 14 Sudoeste 0 -- -- 61
2021-02-18 15:00:00 16.9 6 Oeste 16 Sudoeste 0 -- -- 63
2021-02-18 14:00:00 16.4 7 Sudoeste 15 Sur 0 -- -- 65
2021-02-18 13:00:00 15.6 8 Sudoeste 15 Sudoeste 0 -- -- 68
2021-02-18 12:00:00 14.9 6 Sudoeste 14 Oeste 0 -- -- 71
2021-02-18 11:00:00 14.8 6 Sudoeste 13 Sur 0 -- -- 61
2021-02-18 10:00:00 13.8 5 Sudoeste 9 Sur 0 -- -- 52
2021-02-18 09:00:00 9.7 3 Este 13 Sur 0 -- -- 63
2021-02-18 08:00:00 10.4 3 Sudeste 10 Norte 0 -- -- 72
2021-02-18 07:00:00 11 3 Este 12 Este 0 -- -- 42
2021-02-18 06:00:00 10.1 5 Este 12 Sudeste 0 -- -- 52
2021-02-18 05:00:00 10.7 4 Sudeste 10 Sudeste 0 -- -- 60
2021-02-18 04:00:00 10.6 5 Sudeste 13 Sudeste 0 -- -- 68
2021-02-18 03:00:00 11 4 Este 9 Sudeste 0 -- -- 67
2021-02-18 02:00:00 10.8 6 Sudeste 10 Nordeste 0 -- -- 71
2021-02-18 01:00:00 10.9 5 Sudeste 10 Sudeste 0 -- -- 60
2021-02-18 00:00:00 11.1 4 Norte 10 Norte 0 -- -- 42
2021-02-17 23:00:00 11.3 3 Sudeste 15 Sudeste 0 -- -- 49
2021-02-17 22:00:00 12.4 4 Este 18 Nordeste 0 -- -- 26
2021-02-17 21:00:00 12.8 8 Norte 17 Nordeste 0 -- -- 20
2021-02-17 20:00:00 13.2 10 Nordeste 27 Norte 0 -- -- 21
2021-02-17 19:00:00 13.4 14 Norte 26 Norte 0 -- -- 41
2021-02-17 18:00:00 14.5 14 Norte 23 Nordeste 0 -- -- 35
2021-02-17 17:00:00 16.6 14 Norte 23 Norte 0 -- -- 32
2021-02-17 16:00:00 17.2 13 Norte 26 Norte 0 -- -- 24
2021-02-17 15:00:00 17.4 12 Norte 24 Noroeste 0 -- -- 34
2021-02-17 14:00:00 16.9 12 Norte 20 Norte 0 -- -- 36
2021-02-17 13:00:00 16.4 8 Noroeste 15 Noroeste 0 -- -- 39
2021-02-17 12:00:00 16.3 9 Noroeste 15 Noroeste 0 -- -- 39
2021-02-17 11:00:00 15.9 6 Noroeste 10 Noroeste 0 -- -- 40
2021-02-17 10:00:00 14.8 3 Noroeste 6 Este 0 -- -- 38
2021-02-17 09:00:00 12.5 5 Este 10 Este 0 -- -- 41
2021-02-17 08:00:00 11.9 3 Este 8 Este 0 -- -- 41
2021-02-17 07:00:00 11.1 5 Sudeste 10 Sudeste 0 -- -- 49
2021-02-17 06:00:00 12.2 4 Sudeste 8 Nordeste 0 -- -- 47
2021-02-17 05:00:00 11.8 8 Nordeste 15 Nordeste 0 -- -- 44
2021-02-17 04:00:00 12.2 8 Nordeste 34 Sur 0 -- -- 44
2021-02-17 03:00:00 12.3 2 Sudoeste 17 Sur 0 -- -- 60
2021-02-17 02:00:00 11.5 7 Sur 13 Sur 0 -- -- 65
2021-02-17 01:00:00 12.1 6 Sudeste 21 Sudoeste 0 -- -- 60
2021-02-17 00:00:00 11.7 5 Sur 12 Sudeste 0 -- -- 67
2021-02-16 23:00:00 11.9 10 Sudeste 15 Sudeste 0 -- -- 62
2021-02-16 22:00:00 11.6 4 Sudeste 11 Sudeste 0 -- -- 69
2021-02-16 21:00:00 12.3 6 Nordeste 23 Nordeste 0 -- -- 66
2021-02-16 20:00:00 13.1 9 Nordeste 23 Norte 0 -- -- 82
2021-02-16 19:00:00 14.1 12 Norte 19 Norte 0 -- -- 74
2021-02-16 18:00:00 16.1 8 Norte 21 Nordeste 0 -- -- 60
2021-02-16 17:00:00 17.6 6 Noroeste 19 Sur 0 -- -- 55
2021-02-16 16:00:00 18.3 6 Oeste 16 Sudoeste 0 -- -- 58
2021-02-16 15:00:00 18.4 5 Noroeste 19 Noroeste 0 -- -- 56
2021-02-16 14:00:00 18.1 8 Noroeste 16 Oeste 0 -- -- 59
2021-02-16 13:00:00 17.6 9 Noroeste 16 Noroeste 0 -- -- 52
2021-02-16 12:00:00 17.9 9 Norte 15 Norte 0 -- -- 48
2021-02-16 11:00:00 17.9 5 Nordeste 10 Norte 0 -- -- 43
2021-02-16 10:00:00 16.3 3 Sudoeste 12 Este 0 -- -- 42
2021-02-16 09:00:00 13.6 9 Este 11 Este 0 -- -- 46
2021-02-16 08:00:00 13.4 6 Nordeste 10 Nordeste 0 -- -- 44
2021-02-16 07:00:00 14.1 5 Nordeste 15 Nordeste 0 -- -- 41
2021-02-16 06:00:00 14.4 9 Nordeste 16 Nordeste 0 -- -- 38
2021-02-16 05:00:00 15 5 Nordeste 8 Nordeste 0 -- -- 35
2021-02-16 04:00:00 14.3 5 Este 8 Este 0 -- -- 38
2021-02-16 03:00:00 14.3 6 Este 12 Este 0 -- -- 39
2021-02-16 02:00:00 15.2 6 Este 15 Este 0 -- -- 38
2021-02-16 01:00:00 15.3 9 Nordeste 14 Nordeste 0 -- -- 40
2021-02-16 00:00:00 15.2 8 Nordeste 15 Nordeste 0 -- -- 42
2021-02-15 23:00:00 15.2 8 Nordeste 12 Nordeste 0 -- -- 42
2021-02-15 22:00:00 16.1 6 Sudeste 20 Sur 0 -- -- 39
2021-02-15 21:00:00 16.6 7 Sur 21 Sur 0 -- -- 39
2021-02-15 20:00:00 15.6 6 Sur 12 Sur 0 -- -- 47
2021-02-15 19:00:00 17.4 5 Sudeste 15 Sur 0 -- -- 53
2021-02-15 18:00:00 19.3 10 Sur 17 Sur 0 -- -- 51
2021-02-15 17:00:00 19.8 8 Sudoeste 15 Sudoeste 0 -- -- 51
2021-02-15 16:00:00 20.4 9 Sur 17 Sur 0 -- -- 49
2021-02-15 15:00:00 21 6 Sudoeste 13 Sur 0 -- -- 52
2021-02-15 14:00:00 20 9 Sur 17 Sudoeste 0 -- -- 52
2021-02-15 13:00:00 20 12 Sur 20 Sur 0 -- -- 48
2021-02-15 12:00:00 20.8 11 Sudoeste 25 Sur 0 -- -- 41
2021-02-15 11:00:00 21.2 14 Sur 22 Sur 0 -- -- 27
2021-02-15 10:00:00 19.8 7 Sur 16 Sur 0 -- -- 30
2021-02-15 09:00:00 16.2 0 Calma 14 Sudoeste 0 -- -- 36
2021-02-15 08:00:00 16.2 3 Sudoeste 16 Sudeste 0 -- -- 33
2021-02-15 07:00:00 15.4 5 Sur 13 Sudeste 0 -- -- 36
2021-02-15 06:00:00 16.7 4 Sur 22 Sur 0 -- -- 32
2021-02-15 05:00:00 17.1 9 Sur 23 Sur 0 -- -- 24
2021-02-15 04:00:00 16.6 9 Sur 19 Sur 0 -- -- 23
2021-02-15 03:00:00 13.2 4 Sur 10 Sudeste 0 -- -- 40
2021-02-15 02:00:00 13.4 6 Sudeste 11 Sudeste 0 -- -- 40
2021-02-15 01:00:00 13.6 5 Sudeste 8 Sudeste 0 -- -- 40
2021-02-15 00:00:00 13.8 2 Nordeste 8 Sudeste 0 -- -- 39
2021-02-14 23:00:00 13.5 0 Calma 10 Este 0 -- -- 42
2021-02-14 22:00:00 13.9 4 Nordeste 7 Norte 0 -- -- 43
2021-02-14 21:00:00 13.8 2 Sudeste 7 Sudeste 0 -- -- 55
2021-02-14 20:00:00 14.6 0 Calma 5 Sur 0 -- -- 54
2021-02-14 19:00:00 17 0 Calma 7 Sudoeste 0 -- -- 63
2021-02-14 18:00:00 17.7 4 Sudoeste 9 Oeste 0 -- -- 76
2021-02-14 17:00:00 17.6 3 Sur 13 Sur 0 -- -- 77
2021-02-14 16:00:00 16.6 10 Sur 15 Sur 0 -- -- 80
2021-02-14 15:00:00 17.7 8 Sudoeste 14 Sudoeste 0 -- -- 78
2021-02-14 14:00:00 20 4 Oeste 13 Noroeste 0 -- -- 64
2021-02-14 13:00:00 19.7 10 Norte 15 Norte 0 -- -- 33
2021-02-14 12:00:00 18.5 3 Oeste 10 Noroeste 0 -- -- 47
2021-02-14 11:00:00 16.5 0 Calma 5 Sudoeste 0 -- -- 67
2021-02-14 10:00:00 13.3 0 Calma 6 Norte 0 -- -- 70
2021-02-14 09:00:00 9.6 3 Sudeste 6 Sudeste 0.2 -- -- 80
2021-02-14 08:00:00 9 3 Sur 7 Sur 0 -- -- 86
2021-02-14 07:00:00 9.7 3 Sudeste 10 Sur 0 -- -- 94
2021-02-14 06:00:00 10 4 Sudeste 10 Sur 0 -- -- 93
2021-02-14 05:00:00 10 5 Sur 9 Sur 0 -- -- 93
2021-02-14 04:00:00 9.8 3 Sudeste 6 Sur 0 -- -- 77
2021-02-14 03:00:00 10.4 2 Sudeste 5 Sudeste 0 -- -- 88
2021-02-14 02:00:00 11.2 3 Sur 5 Norte 0 -- -- 81
2021-02-14 01:00:00 11.1 0 Calma 5 Sur 0 -- -- 54
2021-02-14 00:00:00 10.6 4 Sur 8 Sur 0 -- -- 88
2021-02-13 23:00:00 10.7 3 Sudeste 8 Sudeste 0 -- -- 92
2021-02-13 22:00:00 11 3 Sudeste 10 Sudeste 0 -- -- 92
2021-02-13 21:00:00 11.6 5 Sudeste 9 Sudeste 0 -- -- 91
2021-02-13 20:00:00 12.6 3 Sudeste 10 Sur 0 -- -- 88
2021-02-13 19:00:00 14 8 Sur 13 Sur 0 -- -- 83
2021-02-13 18:00:00 16.1 5 Sudoeste 14 Sur 0 -- -- 74
2021-02-13 17:00:00 17 5 Oeste 14 Sudoeste 0 -- -- 70
2021-02-13 16:00:00 17.2 8 Sudoeste 17 Sudoeste 0 -- -- 68
2021-02-13 15:00:00 16.7 8 Oeste 14 Sudoeste 0 -- -- 72
2021-02-13 14:00:00 16.5 8 Sudoeste 17 Oeste 0 -- -- 75
2021-02-13 13:00:00 16.2 9 Sudoeste 17 Sur 0 -- -- 72
2021-02-13 12:00:00 15.6 10 Sur 18 Sur 0 -- -- 74
2021-02-13 07:00:00 9.9 3 Sudeste 12 Sudeste 0 -- -- 90
2021-02-13 06:00:00 9.9 7 Sudeste 10 Sudeste 0 -- -- 91
2021-02-13 05:00:00 10.6 5 Sudeste 12 Sudeste 0 -- -- 92
2021-02-13 04:00:00 11.5 6 Sudeste 16 Sur 0 -- -- 91
2021-02-13 03:00:00 10.6 7 Sudeste 13 Sudeste 0 -- -- 89
2021-02-13 02:00:00 10.2 5 Sudeste 8 Sudeste 0 -- -- 89
2021-02-13 01:00:00 10.9 6 Sudeste 9 Sudeste 0 -- -- 89
2021-02-13 00:00:00 11.5 2 Sur 9 Sudeste 0 -- -- 89
2021-02-12 23:00:00 11.3 2 Este 12 Sudeste 0 -- -- 88
2021-02-12 22:00:00 12.2 2 Norte 10 Sudeste 0 -- -- 87
2021-02-12 21:00:00 12.8 2 Sudeste 20 Noroeste 0 -- -- 91
2021-02-12 20:00:00 13.2 3 Este 8 Sur 0 -- -- 86
2021-02-12 19:00:00 15.2 3 Sudoeste 11 Sudoeste 0 -- -- 77
2021-02-12 18:00:00 16.9 7 Sudoeste 15 Sudoeste 0 -- -- 68
2021-02-12 17:00:00 17.3 7 Sudoeste 16 Sur 0 -- -- 65
2021-02-12 16:00:00 17.4 6 Sudoeste 15 Sur 0 -- -- 65
2021-02-12 15:00:00 17 7 Sudoeste 16 Sudoeste 0 -- -- 72
2021-02-12 14:00:00 15.6 6 Oeste 12 Oeste 0 -- -- 74
2021-02-12 13:00:00 15.6 6 Sudoeste 14 Sudoeste 0 -- -- 71
2021-02-12 12:00:00 15.5 5 Sudoeste 13 Sur 0 -- -- 73
2021-02-12 11:00:00 14.9 6 Sudoeste 10 Oeste 0 -- -- 73
2021-02-12 10:00:00 13.7 0 Calma 6 Este 0 -- -- 77
2021-02-12 09:00:00 10.7 4 Sudeste 10 Este 0 -- -- 89
2021-02-12 08:00:00 9.4 8 Sudeste 11 Sudeste 0 -- -- 90
2021-02-12 07:00:00 10.2 6 Sudeste 10 Sudeste 0 -- -- 88
2021-02-12 06:00:00 10.2 3 Sudeste 9 Este 0 -- -- 90
2021-02-12 05:00:00 10.6 4 Este 8 Sudeste 0 -- -- 93
2021-02-12 04:00:00 10.8 0 Calma 5 Este 0 -- -- 91
2021-02-12 03:00:00 10 4 Sudeste 12 Sudeste 0 -- -- 92
2021-02-12 02:00:00 9.9 8 Sudeste 12 Sudeste 0 -- -- 92
2021-02-12 01:00:00 10.3 6 Sudeste 13 Sudeste 0 -- -- 91
2021-02-12 00:00:00 10.8 8 Sudeste 11 Sudeste 0 -- -- 93
2021-02-11 23:00:00 11 5 Sudeste 10 Sudeste 0 -- -- 92
2021-02-11 22:00:00 11.6 0 Calma 6 Sudeste 0 -- -- 93
2021-02-11 21:00:00 12.3 3 Sudeste 13 Noroeste 0 -- -- 92
2021-02-11 20:00:00 13.2 5 Noroeste 10 Noroeste 0 -- -- 93
2021-02-11 19:00:00 14 4 Sur 12 Oeste 0 -- -- 94
2021-02-11 18:00:00 14.8 4 Sudoeste 10 Sudoeste 0 -- -- 91
2021-02-11 17:00:00 15.9 6 Oeste 15 Norte 0 -- -- 84
2021-02-11 16:00:00 15.6 7 Norte 19 Nordeste 0 -- -- 83
2021-02-11 15:00:00 16.6 10 Norte 19 Norte 0 -- -- 75
2021-02-11 14:00:00 15.5 6 Norte 23 Nordeste 0 -- -- 88
2021-02-11 13:00:00 14 15 Nordeste 30 Norte 0 -- -- 96
2021-02-11 12:00:00 15.1 15 Norte 27 Nordeste 0 -- -- 84
2021-02-11 11:00:00 14.8 15 Norte 24 Norte 0 -- -- 87
2021-02-11 10:00:00 14 10 Norte 18 Norte 0 -- -- 82
2021-02-11 09:00:00 12 8 Nordeste 19 Nordeste 0 -- -- 88
2021-02-11 08:00:00 10.7 0 Calma 12 Este 0 -- -- 88
2021-02-11 07:00:00 10.8 9 Este 17 Nordeste 0 -- -- 93
2021-02-11 06:00:00 10.9 12 Nordeste 18 Nordeste 0 -- -- 93
2021-02-11 05:00:00 10.8 7 Nordeste 14 Nordeste 0 -- -- 83
2021-02-11 04:00:00 11 6 Nordeste 18 Nordeste 0 -- -- 82
2021-02-11 03:00:00 11.2 8 Nordeste 16 Este 0 -- -- 81
2021-02-11 02:00:00 10.9 8 Nordeste 13 Nordeste 0 -- -- 85
2021-02-11 01:00:00 10.8 4 Este 10 Este 0 -- -- 85
2021-02-11 00:00:00 10.8 4 Este 13 Nordeste 0 -- -- 81
2021-02-10 23:00:00 11.1 10 Nordeste 16 Nordeste 0 -- -- 86
2021-02-10 22:00:00 11.1 11 Nordeste 15 Nordeste 0 -- -- 87
2021-02-10 21:00:00 11.6 10 Nordeste 15 Nordeste 0 -- -- 90
2021-02-10 20:00:00 12.6 4 Nordeste 8 Norte 0 -- -- 91
2021-02-10 19:00:00 14.2 4 Noroeste 10 Oeste 0 -- -- 90
2021-02-10 18:00:00 15.2 5 Noroeste 16 Oeste 0 -- -- 86
2021-02-10 17:00:00 15.2 5 Oeste 12 Oeste 0 -- -- 87
2021-02-10 16:00:00 16.5 4 Sudeste 15 Sudoeste 0 -- -- 80
2021-02-10 15:00:00 16.6 7 Oeste 15 Oeste 0 -- -- 80
2021-02-10 14:00:00 15.9 8 Sudoeste 13 Sudoeste 0 -- -- 84
2021-02-10 13:00:00 15.5 6 Oeste 12 Oeste 0 -- -- 86
2021-02-10 12:00:00 15.2 6 Noroeste 14 Nordeste 0 -- -- 83
2021-02-10 11:00:00 14.3 7 Norte 17 Norte 0 -- -- 83
2021-02-10 10:00:00 13.7 8 Norte 16 Norte 0 -- -- 84
2021-02-10 09:00:00 12.4 3 Nordeste 7 Nordeste 0 -- -- 90
2021-02-10 08:00:00 12 0 Calma 9 Nordeste 0 -- -- 89
2021-02-10 07:00:00 11.7 4 Nordeste 12 Este 0 -- -- 89
2021-02-10 06:00:00 10 6 Sudeste 18 Sudeste 0 -- -- 90
2021-02-10 05:00:00 11 9 Sudeste 15 Sur 0 -- -- 91
2021-02-10 04:00:00 11.9 9 Sur 15 Sur 0 -- -- 96
2021-02-10 03:00:00 11.9 7 Sur 13 Sudeste 0 -- -- 95
2021-02-10 02:00:00 11.4 4 Sur 11 Sudeste 0 -- -- 94
2021-02-10 01:00:00 11.3 5 Sudeste 10 Sudeste 0 -- -- 94
2021-02-10 00:00:00 11.3 4 Sudeste 8 Sudeste 0 -- -- 94
2021-02-09 23:00:00 10.8 0 Calma 10 Nordeste 0 -- -- 89
2021-02-09 22:00:00 11.2 6 Nordeste 11 Este 0 -- -- 89
2021-02-09 21:00:00 11.1 5 Nordeste 10 Este 0 -- -- 92
2021-02-09 20:00:00 11.2 5 Nordeste 9 Nordeste 0 -- -- 87
2021-02-09 19:00:00 13.1 5 Norte 12 Norte 0 -- -- 90
2021-02-09 18:00:00 14.3 6 Norte 13 Noroeste 0 -- -- 88
2021-02-09 17:00:00 14.6 6 Noroeste 13 Oeste 0 -- -- 88
2021-02-09 16:00:00 15.3 8 Noroeste 14 Noroeste 0 -- -- 87
2021-02-09 15:00:00 14.7 9 Noroeste 16 Noroeste 0 -- -- 87
2021-02-09 14:00:00 14 5 Noroeste 13 Noroeste 0 -- -- 91
2021-02-09 13:00:00 13.8 6 Oeste 14 Oeste 0 -- -- 94
2021-02-09 12:00:00 13.6 6 Oeste 14 Sudoeste 0.2 -- -- 94
2021-02-09 11:00:00 13.5 5 Noroeste 11 Oeste 0 -- -- 92
2021-02-09 10:00:00 13 3 Norte 7 Norte 0 -- -- 93
2021-02-09 09:00:00 12.2 0 Calma 8 Nordeste 0 -- -- 90
2021-02-09 08:00:00 11.8 5 Nordeste 14 Este 0 -- -- 88
2021-02-09 07:00:00 11.6 7 Nordeste 16 Norte 0 -- -- 89
2021-02-09 06:00:00 11.3 8 Norte 20 Este 0 -- -- 89
2021-02-09 05:00:00 10.5 9 Nordeste 17 Este 0 -- -- 90
2021-02-09 04:00:00 10.8 7 Nordeste 14 Nordeste 0 -- -- 89
2021-02-09 03:00:00 11.1 6 Nordeste 21 Nordeste 0 -- -- 90
2021-02-09 02:00:00 10.7 8 Nordeste 15 Norte 0 -- -- 93
2021-02-09 01:00:00 9.6 6 Nordeste 13 Nordeste 0 -- -- 91
2021-02-09 00:00:00 10.6 7 Este 22 Norte 0 -- -- 87
2021-02-08 23:00:00 11.7 13 Norte 25 Norte 0 -- -- 88
2021-02-08 22:00:00 12 15 Norte 25 Norte 0 -- -- 90
2021-02-08 21:00:00 11.8 12 Nordeste 19 Norte 0 -- -- 87
2021-02-08 20:00:00 11.8 7 Norte 14 Nordeste 0 -- -- 90
2021-02-08 19:00:00 12.2 9 Norte 18 Norte 0 -- -- 91
2021-02-08 18:00:00 12.6 10 Norte 21 Norte 0 -- -- 91
2021-02-08 17:00:00 13.2 10 Norte 19 Nordeste 0 -- -- 90
2021-02-08 16:00:00 14 8 Norte 23 Norte 0 -- -- 89
2021-02-08 15:00:00 15 7 Noroeste 18 Noroeste 0 -- -- 79
2021-02-08 14:00:00 14.7 4 Sur 19 Norte 0 -- -- 80
2021-02-08 13:00:00 14.5 9 Nordeste 23 Norte 0 -- -- 82
2021-02-08 12:00:00 12.9 12 Norte 27 Nordeste 0 -- -- 85
2021-02-08 11:00:00 13.5 14 Norte 24 Norte 0 -- -- 84
2021-02-08 10:00:00 12.5 10 Nordeste 26 Este 0 -- -- 85
2021-02-08 09:00:00 10.8 16 Nordeste 28 Nordeste 0 -- -- 91
2021-02-08 08:00:00 10.6 8 Nordeste 19 Nordeste 0 -- -- 95
2021-02-08 07:00:00 10.2 5 Este 14 Este 0.2 -- -- 96
2021-02-08 06:00:00 10.5 6 Nordeste 21 Nordeste 0.2 -- -- 96
2021-02-08 05:00:00 10.5 5 Nordeste 14 Nordeste 0 -- -- 95
2021-02-08 04:00:00 10 4 Nordeste 19 Este 0 -- -- 93
2021-02-08 03:00:00 9.8 9 Nordeste 18 Nordeste 0 -- -- 93
2021-02-08 02:00:00 9.6 4 Este 10 Nordeste 0 -- -- 92
2021-02-08 01:00:00 9.8 0 Calma 8 Sudeste 0 -- -- 93
2021-02-08 00:00:00 10.3 4 Sudeste 6 Sudeste 0 -- -- 92
2021-02-07 23:00:00 10.1 4 Nordeste 8 Este 0 -- -- 92
2021-02-07 22:00:00 10.5 4 Norte 10 Este 0 -- -- 89
2021-02-07 21:00:00 10.7 3 Este 13 Norte 0 -- -- 90
2021-02-07 20:00:00 10.6 9 Este 14 Este 0 -- -- 90
2021-02-07 19:00:00 12 7 Nordeste 20 Nordeste 0 -- -- 85
2021-02-07 18:00:00 15.1 4 Sur 24 Norte 0 -- -- 76
2021-02-07 17:00:00 14 14 Norte 21 Nordeste 0 -- -- 83
2021-02-07 16:00:00 13.6 13 Norte 24 Norte 0 -- -- 84
2021-02-07 15:00:00 13.1 13 Norte 22 Norte 0 -- -- 84
2021-02-07 14:00:00 12.9 9 Norte 21 Norte 0 -- -- 85
2021-02-07 13:00:00 12.8 7 Nordeste 14 Norte 0 -- -- 83
2021-02-07 12:00:00 12.7 4 Sudoeste 13 Nordeste 0 -- -- 82
2021-02-07 11:00:00 12.4 5 Este 15 Norte 0 -- -- 82
2021-02-07 10:00:00 11.9 2 Noroeste 9 Este 0 -- -- 79
2021-02-07 09:00:00 9.7 2 Sudeste 21 Nordeste 0 -- -- 84
2021-02-07 08:00:00 9.2 11 Este 22 Este 0 -- -- 86
2021-02-07 07:00:00 9.1 6 Sudeste 15 Este 0 -- -- 84
2021-02-07 06:00:00 9 5 Este 14 Este 0 -- -- 85
2021-02-07 05:00:00 9.5 8 Sudeste 24 Este 0 -- -- 83
2021-02-07 04:00:00 9.6 13 Este 23 Este 0 -- -- 88
2021-02-07 03:00:00 9.8 8 Nordeste 27 Este 0 -- -- 83
2021-02-07 02:00:00 10.2 15 Nordeste 39 Nordeste 0 -- -- 77
2021-02-07 01:00:00 10 13 Nordeste 31 Norte 0 -- -- 84
2021-02-07 00:00:00 10 17 Nordeste 39 Nordeste 0 -- -- 85
2021-02-06 23:00:00 9.9 14 Nordeste 35 Nordeste 0 -- -- 85
2021-02-06 22:00:00 10.5 15 Nordeste 38 Nordeste 0 -- -- 83
2021-02-06 21:00:00 10.5 21 Nordeste 44 Nordeste 0 -- -- 76
2021-02-06 20:00:00 9.7 19 Nordeste 40 Nordeste 0 -- -- 78
2021-02-06 19:00:00 10.4 22 Nordeste 42 Norte 0.2 -- -- 89
2021-02-06 18:00:00 10.8 25 Norte 44 Norte 0.8 -- -- 89
2021-02-06 17:00:00 12.1 27 Norte 45 Norte 0 -- -- 83
2021-02-06 16:00:00 11.2 27 Norte 42 Norte 1 -- -- 89
2021-02-06 15:00:00 12.9 28 Norte 44 Norte 0 -- -- 77
2021-02-06 14:00:00 12.7 26 Norte 45 Norte 0 -- -- 81
2021-02-06 13:00:00 12.6 26 Norte 45 Norte 0 -- -- 76
2021-02-06 12:00:00 12 21 Nordeste 47 Norte 0 -- -- 82
2021-02-06 11:00:00 11.6 22 Nordeste 44 Nordeste 0 -- -- 81
2021-02-06 10:00:00 10.4 26 Nordeste 48 Nordeste 0 -- -- 83
2021-02-06 09:00:00 9.4 21 Nordeste 41 Nordeste 0 -- -- 86
2021-02-06 08:00:00 9.5 25 Norte 42 Nordeste 0 -- -- 92
2021-02-06 07:00:00 9.2 22 Norte 41 Norte 0 -- -- 90
2021-02-06 06:00:00 9.4 27 Norte 42 Norte 0.2 -- -- 91
2021-02-06 05:00:00 9.3 23 Nordeste 49 Norte 0 -- -- 84
2021-02-06 04:00:00 9.3 22 Norte 42 Nordeste 0.2 -- -- 92
2021-02-06 03:00:00 9.6 23 Norte 46 Norte 0 -- -- 88
2021-02-06 02:00:00 9.4 23 Norte 44 Nordeste 0 -- -- 85
2021-02-06 01:00:00 9.1 23 Nordeste 41 Norte 0 -- -- 85
2021-02-06 00:00:00 9 21 Nordeste 47 Norte 0 -- -- 84
2021-02-05 23:00:00 8.7 30 Nordeste 50 Nordeste 0 -- -- 83
2021-02-05 22:00:00 8.8 29 Nordeste 53 Norte 0 -- -- 85
2021-02-05 21:00:00 8.8 30 Norte 55 Norte 0.2 -- -- 86
2021-02-05 20:00:00 8.4 29 Nordeste 49 Nordeste 1.2 -- -- 94
2021-02-05 19:00:00 8.3 26 Nordeste 52 Norte 0 -- -- 90
2021-02-05 18:00:00 9.5 30 Nordeste 57 Norte 0.8 -- -- 87
2021-02-05 17:00:00 10.3 30 Nordeste 60 Norte 0 -- -- 81
2021-02-05 16:00:00 9.9 29 Nordeste 53 Norte 0 -- -- 80
2021-02-05 15:00:00 8.4 22 Nordeste 49 Norte 1.2 -- -- 92
2021-02-05 14:00:00 8.8 23 Nordeste 50 Nordeste 0.2 -- -- 89
2021-02-05 13:00:00 5.9 27 Nordeste 82 Norte 7.8 -- -- 94
2021-02-05 12:00:00 9.1 27 Nordeste 51 Nordeste 0.6 -- -- 94
2021-02-05 11:00:00 6.9 30 Nordeste 65 Norte 9.2 -- -- 92
2021-02-05 10:00:00 8 27 Norte 53 Norte 0.4 -- -- 91
2021-02-05 09:00:00 8.2 21 Norte 46 Norte 0.2 -- -- 89
2021-02-05 08:00:00 7.1 20 Norte 38 Norte 0.8 -- -- 93
2021-02-05 07:00:00 6.2 20 Nordeste 53 Norte 1 -- -- 87
2021-02-05 06:00:00 6.3 16 Nordeste 44 Nordeste 1.6 -- -- 89
2021-02-05 05:00:00 7 29 Norte 61 Norte 2.6 -- -- 95
2021-02-05 04:00:00 6.5 15 Nordeste 45 Este 10.4 -- -- 95
2021-02-05 03:00:00 7.9 8 Norte 27 Norte 0 -- -- 89
2021-02-05 02:00:00 8.1 12 Nordeste 22 Norte 0 -- -- 88
2021-02-05 01:00:00 7.5 10 Norte 26 Este 0 -- -- 89
2021-02-05 00:00:00 7.2 12 Nordeste 37 Nordeste 0.8 -- -- 91
2021-02-04 23:00:00 8.7 15 Norte 27 Norte 0 -- -- 80
2021-02-04 22:00:00 9.2 11 Norte 27 Noroeste 0 -- -- 86
2021-02-04 21:00:00 8.8 15 Norte 26 Norte 0 -- -- 77
2021-02-04 20:00:00 8.8 12 Norte 37 Noroeste 1.2 -- -- 84
2021-02-04 19:00:00 10.1 10 Norte 24 Norte 0 -- -- 78
2021-02-04 18:00:00 10.6 16 Norte 30 Norte 0 -- -- 76
2021-02-04 17:00:00 11.7 15 Norte 29 Norte 0 -- -- 73
2021-02-04 16:00:00 12.1 18 Noroeste 30 Norte 0 -- -- 73
2021-02-04 15:00:00 11.7 15 Norte 32 Norte 0 -- -- 77
2021-02-04 14:00:00 10.9 18 Norte 31 Norte 0.2 -- -- 84
2021-02-04 13:00:00 11.1 15 Norte 27 Noroeste 0 -- -- 82
2021-02-04 12:00:00 11.7 12 Norte 26 Norte 0.2 -- -- 84
2021-02-04 11:00:00 10.4 10 Nordeste 32 Norte 0.2 -- -- 89
2021-02-04 10:00:00 10.7 9 Norte 24 Norte 0 -- -- 83
2021-02-04 09:00:00 10.3 10 Norte 27 Noroeste 0 -- -- 84
2021-02-04 08:00:00 10.1 13 Norte 25 Norte 0 -- -- 90
2021-02-04 07:00:00 9.7 14 Norte 26 Norte 0 -- -- 88
2021-02-04 06:00:00 9.7 13 Norte 27 Norte 0.2 -- -- 89
2021-02-04 05:00:00 10.2 11 Nordeste 28 Norte 1.2 -- -- 95
2021-02-04 04:00:00 10.7 13 Norte 29 Este 1.4 -- -- 95
2021-02-04 03:00:00 10.6 14 Nordeste 31 Norte 0.6 -- -- 96
2021-02-04 02:00:00 11.1 18 Nordeste 35 Este 0 -- -- 94
2021-02-04 01:00:00 11.2 17 Nordeste 37 Norte 0.8 -- -- 96
2021-02-04 00:00:00 11.4 18 Nordeste 41 Norte 3.4 -- -- 97
2021-02-03 23:00:00 11.9 19 Norte 41 Norte 5 -- -- 97
2021-02-03 22:00:00 12.1 19 Norte 41 Norte 2 -- -- 94
2021-02-03 21:00:00 12.3 9 Nordeste 26 Este 0 -- -- 88
2021-02-03 20:00:00 12.3 13 Nordeste 22 Norte 0 -- -- 93
2021-02-03 19:00:00 12.4 14 Norte 21 Norte 0 -- -- 90
2021-02-03 18:00:00 15 11 Norte 23 Norte 0 -- -- 80
2021-02-03 17:00:00 15.3 15 Norte 30 Norte 0 -- -- 77
2021-02-03 16:00:00 15 21 Norte 32 Norte 0 -- -- 79
2021-02-03 15:00:00 15.2 15 Norte 24 Norte 0 -- -- 78
2021-02-03 14:00:00 15.4 10 Norte 24 Nordeste 0 -- -- 76
2021-02-03 13:00:00 14.3 13 Norte 24 Norte 0 -- -- 82
2021-02-03 12:00:00 13.9 4 Nordeste 13 Norte 0 -- -- 83
2021-02-03 11:00:00 13.1 5 Sudoeste 14 Sur 0 -- -- 86
2021-02-03 10:00:00 12.6 4 Sur 11 Sudeste 0 -- -- 89
2021-02-03 09:00:00 11.6 5 Sudeste 17 Sur 0 -- -- 93
2021-02-03 08:00:00 11.3 8 Sur 16 Sur 0 -- -- 94
2021-02-03 07:00:00 11.2 7 Sudeste 17 Sur 0 -- -- 94
2021-02-03 06:00:00 10.8 4 Sur 9 Sudeste 0 -- -- 94
2021-02-03 05:00:00 11.2 4 Sudeste 14 Sur 0 -- -- 94
2021-02-03 04:00:00 11.5 5 Sudeste 14 Sur 0 -- -- 94
2021-02-03 03:00:00 11.3 7 Sur 13 Sur 0 -- -- 95
2021-02-03 02:00:00 10.1 3 Nordeste 6 Sudeste 0 -- -- 90
2021-02-03 01:00:00 11.2 4 Sudeste 8 Sudeste 0 -- -- 91
2021-02-03 00:00:00 12.3 6 Sudeste 15 Sudeste 0 -- -- 94
2021-02-02 23:00:00 12 3 Sudeste 17 Sur 0 -- -- 92
2021-02-02 22:00:00 13 9 Sur 14 Sur 0 -- -- 95
2021-02-02 21:00:00 13.3 6 Sur 12 Sur 0 -- -- 94
2021-02-02 20:00:00 13.7 5 Sur 9 Sudeste 0 -- -- 93
2021-02-02 19:00:00 14.9 4 Sur 18 Este 0 -- -- 83
2021-02-02 18:00:00 16.9 9 Nordeste 20 Nordeste 0 -- -- 77
2021-02-02 17:00:00 19.5 5 Sur 17 Norte 0 -- -- 67
2021-02-02 16:00:00 17.2 8 Noroeste 15 Noroeste 0 -- -- 79
2021-02-02 15:00:00 18.9 5 Sudoeste 13 Sudoeste 0 -- -- 72
2021-02-02 14:00:00 18.2 5 Sudoeste 12 Oeste 0 -- -- 76
2021-02-02 13:00:00 16.1 5 Sur 13 Sudoeste 0 -- -- 87
2021-02-02 12:00:00 16.2 9 Sur 13 Sur 0 -- -- 86
2021-02-02 11:00:00 15.9 5 Sudoeste 11 Sudoeste 0 -- -- 85
2021-02-02 10:00:00 16.4 3 Sur 7 Sur 0 -- -- 76
2021-02-02 09:00:00 15.6 2 Oeste 13 Sudoeste 0 -- -- 51
2021-02-02 08:00:00 15.8 8 Sudeste 14 Sudeste 0 -- -- 31
2021-02-02 07:00:00 15.9 6 Sudeste 10 Sudeste 0 -- -- 31
2021-02-02 06:00:00 17 0 Calma 8 Sudeste 0 -- -- 31
2021-02-02 05:00:00 15.7 5 Sudeste 12 Sudeste 0 -- -- 32
2021-02-02 04:00:00 15.7 5 Sudeste 12 Nordeste 0 -- -- 36
2021-02-02 03:00:00 15.8 6 Nordeste 12 Este 0 -- -- 43
2021-02-02 02:00:00 14.4 6 Sudeste 8 Sudeste 0 -- -- 49
2021-02-02 01:00:00 14.9 0 Calma 8 Sudeste 0 -- -- 51
2021-02-02 00:00:00 15.6 3 Sudeste 8 Norte 0 -- -- 58
2021-02-01 23:00:00 15 3 Sudeste 11 Sudeste 0 -- -- 50
2021-02-01 22:00:00 15.1 4 Sudeste 8 Sur 0 -- -- 52
2021-02-01 21:00:00 15 0 Calma 6 Nordeste 0 -- -- 53
2021-02-01 20:00:00 15 4 Sudeste 8 Sudeste 0 -- -- 59
2021-02-01 19:00:00 16.7 3 Sur 7 Sudoeste 0 -- -- 76
2021-02-01 18:00:00 19.6 3 Oeste 12 Sur 0 -- -- 63
2021-02-01 17:00:00 20.2 5 Sur 12 Sudoeste 0 -- -- 66
2021-02-01 16:00:00 20.5 5 Sudoeste 13 Sudoeste 0 -- -- 65
2021-02-01 15:00:00 19.9 5 Oeste 13 Sudoeste 0 -- -- 64
2021-02-01 14:00:00 20.3 6 Sur 13 Sur 0 -- -- 64
2021-02-01 13:00:00 19.7 6 Sur 13 Sur 0 -- -- 65
2021-02-01 12:00:00 18.6 7 Sur 12 Sur 0 -- -- 67
2021-02-01 11:00:00 18 3 Sudoeste 10 Sudoeste 0 -- -- 67
2021-02-01 10:00:00 17.8 5 Sur 8 Sur 0 -- -- 60
2021-02-01 09:00:00 15.2 6 Este 11 Sudeste 0 -- -- 46
2021-02-01 08:00:00 15 5 Sudeste 9 Este 0 -- -- 48
2021-02-01 07:00:00 16.3 2 Sur 8 Este 0 -- -- 44
2021-02-01 06:00:00 15.8 4 Sudeste 9 Sudeste 0 -- -- 44
2021-02-01 05:00:00 16.6 0 Calma 8 Sudeste 0 -- -- 38
2021-02-01 04:00:00 16.2 4 Sudeste 11 Sudeste 0 -- -- 41
2021-02-01 03:00:00 16.5 3 Sudeste 10 Este 0 -- -- 38
2021-02-01 02:00:00 15.9 2 Nordeste 7 Sudeste 0 -- -- 43
2021-02-01 01:00:00 16.4 5 Nordeste 8 Este 0 -- -- 45
2021-02-01 00:00:00 16.8 4 Este 8 Este 0 -- -- 44
2021-01-31 23:00:00 17.1 2 Norte 6 Este 0 -- -- 43
2021-01-31 22:00:00 16.2 3 Sudeste 8 Sudeste 0 -- -- 46
2021-01-31 21:00:00 16 0 Calma 8 Sudoeste 0 -- -- 62
2021-01-31 20:00:00 16.1 5 Sudeste 8 Sudeste 0 -- -- 54
2021-01-31 19:00:00 17.2 3 Este 8 Norte 0 -- -- 75
2021-01-31 18:00:00 18.9 4 Sudoeste 12 Sur 0 -- -- 71
2021-01-31 17:00:00 19.1 5 Sudoeste 13 Sudoeste 0 -- -- 69
2021-01-31 16:00:00 20.3 6 Sudoeste 12 Sudoeste 0 -- -- 64
2021-01-31 15:00:00 19 8 Sudoeste 14 Sudoeste 0 -- -- 68
2021-01-31 14:00:00 19.1 4 Sudoeste 12 Sudoeste 0 -- -- 75
2021-01-31 13:00:00 19 8 Oeste 17 Oeste 0 -- -- 62
2021-01-31 12:00:00 19.3 6 Sudoeste 10 Sur 0 -- -- 71
2021-01-31 11:00:00 16.3 5 Sudoeste 10 Sur 0 -- -- 84
2021-01-31 10:00:00 15.5 6 Sur 9 Sur 0 -- -- 80
2021-01-31 09:00:00 14.6 2 Sudeste 5 Nordeste 0 -- -- 51
2021-01-31 08:00:00 15.3 0 Calma 10 Sudeste 0 -- -- 38
2021-01-31 07:00:00 15.4 3 Sur 16 Este 0 -- -- 37
2021-01-31 06:00:00 12.6 8 Sudeste 12 Sudeste 0 -- -- 79
2021-01-31 05:00:00 14.5 3 Sudeste 18 Este 0 -- -- 59
2021-01-31 04:00:00 15.9 2 Sudeste 8 Este 0 -- -- 37
2021-01-31 03:00:00 15.6 4 Sudeste 14 Sudeste 0 -- -- 29
2021-01-31 02:00:00 15.7 4 Sudeste 16 Este 0 -- -- 27
2021-01-31 01:00:00 15 3 Sudeste 8 Sudeste 0 -- -- 43
2021-01-31 00:00:00 15.9 3 Sudeste 9 Sur 0 -- -- 27
2021-01-30 23:00:00 17.5 4 Sudeste 9 Sudeste 0 -- -- 22
2021-01-30 22:00:00 16 3 Sur 15 Nordeste 0 -- -- 28
2021-01-30 21:00:00 15.7 8 Nordeste 15 Nordeste 0 -- -- 44
2021-01-30 20:00:00 16 3 Este 11 Sur 0 -- -- 40
2021-01-30 19:00:00 18.5 5 Sur 11 Sur 0 -- -- 47
2021-01-30 18:00:00 21.2 5 Sur 13 Sur 0 -- -- 52
2021-01-30 17:00:00 20.4 4 Sur 12 Sudoeste 0 -- -- 62
2021-01-30 16:00:00 19.1 8 Sur 14 Sudoeste 0 -- -- 68
2021-01-30 15:00:00 20.2 9 Sudoeste 13 Sudoeste 0 -- -- 66
2021-01-30 14:00:00 22 6 Sudoeste 12 Sudoeste 0 -- -- 39
2021-01-30 13:00:00 20.7 6 Sudoeste 19 Sur 0 -- -- 66
2021-01-30 12:00:00 22.5 9 Sur 16 Sur 0 -- -- 38
2021-01-30 11:00:00 21.9 5 Norte 17 Norte 0 -- -- 21
2021-01-30 10:00:00 19.5 6 Nordeste 12 Nordeste 0 -- -- 27
2021-01-30 09:00:00 16.6 11 Este 13 Este 0 -- -- 26
2021-01-30 08:00:00 15.3 5 Sudeste 6 Sudeste 0 -- -- 27
2021-01-30 07:00:00 16.4 4 Sudeste 18 Este 0 -- -- 23
2021-01-30 06:00:00 16.9 13 Nordeste 25 Nordeste 0 -- -- 24
2021-01-30 05:00:00 16.2 7 Nordeste 19 Nordeste 0 -- -- 24
2021-01-30 04:00:00 17.2 10 Nordeste 16 Nordeste 0 -- -- 23
2021-01-30 03:00:00 17.2 4 Sudeste 15 Norte 0 -- -- 22
2021-01-30 02:00:00 18.5 7 Nordeste 22 Nordeste 0 -- -- 21
2021-01-30 01:00:00 18.6 15 Nordeste 24 Nordeste 0 -- -- 21
2021-01-30 00:00:00 17.7 12 Nordeste 28 Norte 0 -- -- 24